sensor_id;sensor_type;location;lat;lon;timestamp;P1;durP1;ratioP1;P2;durP2;ratioP2
71091;SDS011;58751;50.708;7.134;2023-01-30T00:00:57;15.40;;;8.47;;
71091;SDS011;58751;50.708;7.134;2023-01-30T00:03:23;13.65;;;8.98;;
71091;SDS011;58751;50.708;7.134;2023-01-30T00:05:49;12.23;;;7.07;;
71091;SDS011;58751;50.708;7.134;2023-01-30T00:08:15;13.23;;;8.60;;
71091;SDS011;58751;50.708;7.134;2023-01-30T00:10:41;14.82;;;8.80;;
71091;SDS011;58751;50.708;7.134;2023-01-30T00:13:06;12.90;;;7.43;;
71091;SDS011;58751;50.708;7.134;2023-01-30T00:15:32;12.83;;;8.20;;
71091;SDS011;58751;50.708;7.134;2023-01-30T00:17:57;14.00;;;9.20;;
71091;SDS011;58751;50.708;7.134;2023-01-30T00:20:22;13.73;;;7.90;;
71091;SDS011;58751;50.708;7.134;2023-01-30T00:22:47;14.73;;;8.23;;
71091;SDS011;58751;50.708;7.134;2023-01-30T00:25:14;10.60;;;7.50;;
71091;SDS011;58751;50.708;7.134;2023-01-30T00:27:39;11.77;;;8.15;;
71091;SDS011;58751;50.708;7.134;2023-01-30T00:30:05;10.10;;;7.13;;
71091;SDS011;58751;50.708;7.134;2023-01-30T00:32:30;11.30;;;7.40;;
71091;SDS011;58751;50.708;7.134;2023-01-30T00:34:55;14.00;;;7.63;;
71091;SDS011;58751;50.708;7.134;2023-01-30T00:37:20;13.70;;;8.23;;
71091;SDS011;58751;50.708;7.134;2023-01-30T00:39:46;12.77;;;8.27;;
71091;SDS011;58751;50.708;7.134;2023-01-30T00:42:12;10.70;;;7.70;;
71091;SDS011;58751;50.708;7.134;2023-01-30T00:44:38;11.25;;;7.80;;
71091;SDS011;58751;50.708;7.134;2023-01-30T00:47:03;14.47;;;8.90;;
71091;SDS011;58751;50.708;7.134;2023-01-30T00:49:28;14.30;;;8.50;;
71091;SDS011;58751;50.708;7.134;2023-01-30T00:51:53;13.80;;;9.27;;
71091;SDS011;58751;50.708;7.134;2023-01-30T00:54:18;11.70;;;8.50;;
71091;SDS011;58751;50.708;7.134;2023-01-30T00:56:44;13.43;;;8.87;;
71091;SDS011;58751;50.708;7.134;2023-01-30T00:59:10;14.63;;;9.23;;
71091;SDS011;58751;50.708;7.134;2023-01-30T01:01:35;12.77;;;9.00;;
71091;SDS011;58751;50.708;7.134;2023-01-30T01:04:01;11.57;;;8.60;;
71091;SDS011;58751;50.708;7.134;2023-01-30T01:06:26;14.17;;;9.37;;
71091;SDS011;58751;50.708;7.134;2023-01-30T01:08:51;16.00;;;9.63;;
71091;SDS011;58751;50.708;7.134;2023-01-30T01:11:16;11.63;;;7.80;;
71091;SDS011;58751;50.708;7.134;2023-01-30T01:13:41;12.80;;;8.27;;
71091;SDS011;58751;50.708;7.134;2023-01-30T01:16:08;14.37;;;9.00;;
71091;SDS011;58751;50.708;7.134;2023-01-30T01:18:33;10.35;;;6.95;;
71091;SDS011;58751;50.708;7.134;2023-01-30T01:20:58;12.13;;;7.47;;
71091;SDS011;58751;50.708;7.134;2023-01-30T01:23:24;10.67;;;6.83;;
71091;SDS011;58751;50.708;7.134;2023-01-30T01:25:49;8.83;;;6.20;;
71091;SDS011;58751;50.708;7.134;2023-01-30T01:28:14;9.63;;;6.60;;
71091;SDS011;58751;50.708;7.134;2023-01-30T01:30:39;6.67;;;5.10;;
71091;SDS011;58751;50.708;7.134;2023-01-30T01:33:06;9.83;;;6.87;;
71091;SDS011;58751;50.708;7.134;2023-01-30T01:35:31;9.75;;;6.45;;
71091;SDS011;58751;50.708;7.134;2023-01-30T01:37:56;11.00;;;6.93;;
71091;SDS011;58751;50.708;7.134;2023-01-30T01:40:21;9.37;;;6.30;;
71091;SDS011;58751;50.708;7.134;2023-01-30T01:42:46;9.30;;;6.77;;
71091;SDS011;58751;50.708;7.134;2023-01-30T01:45:13;11.67;;;6.30;;
71091;SDS011;58751;50.708;7.134;2023-01-30T01:47:56;8.32;;;6.80;;
71091;SDS011;58751;50.708;7.134;2023-01-30T01:50:25;11.35;;;6.82;;
71091;SDS011;58751;50.708;7.134;2023-01-30T01:52:51;7.55;;;5.85;;
71091;SDS011;58751;50.708;7.134;2023-01-30T01:55:17;10.05;;;5.78;;
71091;SDS011;58751;50.708;7.134;2023-01-30T01:57:45;9.90;;;6.35;;
71091;SDS011;58751;50.708;7.134;2023-01-30T02:00:13;9.40;;;6.40;;
71091;SDS011;58751;50.708;7.134;2023-01-30T02:02:39;8.93;;;6.78;;
71091;SDS011;58751;50.708;7.134;2023-01-30T02:05:05;10.83;;;6.30;;
71091;SDS011;58751;50.708;7.134;2023-01-30T02:07:32;9.43;;;6.30;;
71091;SDS011;58751;50.708;7.134;2023-01-30T02:09:58;10.43;;;7.10;;
71091;SDS011;58751;50.708;7.134;2023-01-30T02:12:24;10.93;;;7.07;;
71091;SDS011;58751;50.708;7.134;2023-01-30T02:14:49;10.20;;;6.47;;
71091;SDS011;58751;50.708;7.134;2023-01-30T02:17:15;12.20;;;6.30;;
71091;SDS011;58751;50.708;7.134;2023-01-30T02:19:41;8.60;;;6.33;;
71091;SDS011;58751;50.708;7.134;2023-01-30T02:22:14;10.40;;;6.20;;
71091;SDS011;58751;50.708;7.134;2023-01-30T02:27:40;11.68;;;7.72;;
71091;SDS011;58751;50.708;7.134;2023-01-30T02:33:00;7.15;;;5.68;;
71091;SDS011;58751;50.708;7.134;2023-01-30T02:35:30;9.30;;;6.72;;
71091;SDS011;58751;50.708;7.134;2023-01-30T02:38:00;8.77;;;6.38;;
71091;SDS011;58751;50.708;7.134;2023-01-30T02:40:35;12.10;;;7.03;;
71091;SDS011;58751;50.708;7.134;2023-01-30T02:43:05;10.00;;;6.85;;
71091;SDS011;58751;50.708;7.134;2023-01-30T02:45:33;10.07;;;7.03;;
71091;SDS011;58751;50.708;7.134;2023-01-30T02:48:01;8.23;;;5.68;;
71091;SDS011;58751;50.708;7.134;2023-01-30T02:50:28;11.77;;;6.93;;
71091;SDS011;58751;50.708;7.134;2023-01-30T02:52:54;10.57;;;7.20;;
71091;SDS011;58751;50.708;7.134;2023-01-30T02:55:21;9.37;;;6.20;;
71091;SDS011;58751;50.708;7.134;2023-01-30T02:57:46;10.73;;;6.60;;
71091;SDS011;58751;50.708;7.134;2023-01-30T03:00:12;9.10;;;6.87;;
71091;SDS011;58751;50.708;7.134;2023-01-30T03:02:45;6.60;;;5.25;;
71091;SDS011;58751;50.708;7.134;2023-01-30T03:05:23;9.88;;;6.53;;
71091;SDS011;58751;50.708;7.134;2023-01-30T03:07:53;9.25;;;6.55;;
71091;SDS011;58751;50.708;7.134;2023-01-30T03:10:21;9.25;;;6.72;;
71091;SDS011;58751;50.708;7.134;2023-01-30T03:12:48;7.85;;;5.70;;
71091;SDS011;58751;50.708;7.134;2023-01-30T03:15:16;9.38;;;6.68;;
71091;SDS011;58751;50.708;7.134;2023-01-30T03:17:42;8.63;;;6.28;;
71091;SDS011;58751;50.708;7.134;2023-01-30T03:20:09;10.18;;;5.90;;
71091;SDS011;58751;50.708;7.134;2023-01-30T03:22:36;11.43;;;7.03;;
71091;SDS011;58751;50.708;7.134;2023-01-30T03:25:01;7.15;;;5.55;;
71091;SDS011;58751;50.708;7.134;2023-01-30T03:27:26;10.37;;;5.70;;
71091;SDS011;58751;50.708;7.134;2023-01-30T03:29:52;7.67;;;5.50;;
71091;SDS011;58751;50.708;7.134;2023-01-30T03:32:17;12.50;;;5.50;;
71091;SDS011;58751;50.708;7.134;2023-01-30T03:34:42;7.07;;;5.50;;
71091;SDS011;58751;50.708;7.134;2023-01-30T03:37:07;6.73;;;4.67;;
71091;SDS011;58751;50.708;7.134;2023-01-30T03:39:34;5.83;;;3.57;;
71091;SDS011;58751;50.708;7.134;2023-01-30T03:41:59;10.05;;;5.60;;
71091;SDS011;58751;50.708;7.134;2023-01-30T03:44:25;7.10;;;4.30;;
71091;SDS011;58751;50.708;7.134;2023-01-30T03:46:50;7.10;;;4.23;;
71091;SDS011;58751;50.708;7.134;2023-01-30T03:49:15;6.20;;;4.73;;
71091;SDS011;58751;50.708;7.134;2023-01-30T03:51:40;6.50;;;4.70;;
71091;SDS011;58751;50.708;7.134;2023-01-30T03:54:05;5.07;;;4.57;;
71091;SDS011;58751;50.708;7.134;2023-01-30T03:56:32;6.07;;;4.13;;
71091;SDS011;58751;50.708;7.134;2023-01-30T03:58:57;7.53;;;4.55;;
71091;SDS011;58751;50.708;7.134;2023-01-30T04:01:22;9.03;;;4.70;;
71091;SDS011;58751;50.708;7.134;2023-01-30T04:03:48;4.87;;;4.37;;
71091;SDS011;58751;50.708;7.134;2023-01-30T04:06:13;5.80;;;4.20;;
71091;SDS011;58751;50.708;7.134;2023-01-30T04:08:38;8.03;;;4.50;;
71091;SDS011;58751;50.708;7.134;2023-01-30T04:11:03;5.47;;;3.90;;
71091;SDS011;58751;50.708;7.134;2023-01-30T04:13:30;4.53;;;3.57;;
71091;SDS011;58751;50.708;7.134;2023-01-30T04:18:35;7.22;;;4.18;;
71091;SDS011;58751;50.708;7.134;2023-01-30T04:21:00;4.93;;;3.47;;
71091;SDS011;58751;50.708;7.134;2023-01-30T04:23:26;6.30;;;3.87;;
71091;SDS011;58751;50.708;7.134;2023-01-30T04:25:51;5.70;;;4.33;;
71091;SDS011;58751;50.708;7.134;2023-01-30T04:28:16;3.57;;;3.23;;
71091;SDS011;58751;50.708;7.134;2023-01-30T04:30:43;6.73;;;3.97;;
71091;SDS011;58751;50.708;7.134;2023-01-30T04:33:08;7.07;;;4.28;;
71091;SDS011;58751;50.708;7.134;2023-01-30T04:35:33;6.13;;;4.20;;
71091;SDS011;58751;50.708;7.134;2023-01-30T04:37:58;5.67;;;3.70;;
71091;SDS011;58751;50.708;7.134;2023-01-30T04:40:23;4.90;;;3.70;;
71091;SDS011;58751;50.708;7.134;2023-01-30T04:42:48;3.90;;;3.00;;
71091;SDS011;58751;50.708;7.134;2023-01-30T04:45:14;5.50;;;3.87;;
71091;SDS011;58751;50.708;7.134;2023-01-30T04:47:40;3.57;;;3.27;;
71091;SDS011;58751;50.708;7.134;2023-01-30T04:50:06;3.95;;;3.10;;
71091;SDS011;58751;50.708;7.134;2023-01-30T04:52:31;4.47;;;3.53;;
71091;SDS011;58751;50.708;7.134;2023-01-30T04:54:56;3.57;;;3.27;;
71091;SDS011;58751;50.708;7.134;2023-01-30T04:57:22;3.60;;;3.00;;
71091;SDS011;58751;50.708;7.134;2023-01-30T04:59:47;4.93;;;3.30;;
71091;SDS011;58751;50.708;7.134;2023-01-30T05:02:12;4.00;;;3.03;;
71091;SDS011;58751;50.708;7.134;2023-01-30T05:04:39;6.73;;;3.90;;
71091;SDS011;58751;50.708;7.134;2023-01-30T05:07:04;3.90;;;3.42;;
71091;SDS011;58751;50.708;7.134;2023-01-30T05:09:29;4.10;;;3.03;;
71091;SDS011;58751;50.708;7.134;2023-01-30T05:11:54;3.90;;;3.10;;
71091;SDS011;58751;50.708;7.134;2023-01-30T05:14:20;5.40;;;3.50;;
71091;SDS011;58751;50.708;7.134;2023-01-30T05:16:46;5.10;;;3.20;;
71091;SDS011;58751;50.708;7.134;2023-01-30T05:19:11;4.23;;;3.33;;
71091;SDS011;58751;50.708;7.134;2023-01-30T05:21:38;4.80;;;3.30;;
71091;SDS011;58751;50.708;7.134;2023-01-30T05:24:03;4.45;;;3.60;;
71091;SDS011;58751;50.708;7.134;2023-01-30T05:26:28;3.90;;;3.13;;
71091;SDS011;58751;50.708;7.134;2023-01-30T05:28:55;5.00;;;3.63;;
71091;SDS011;58751;50.708;7.134;2023-01-30T05:31:20;9.63;;;3.75;;
71091;SDS011;58751;50.708;7.134;2023-01-30T05:33:46;3.70;;;3.27;;
71091;SDS011;58751;50.708;7.134;2023-01-30T05:36:12;4.97;;;3.33;;
71091;SDS011;58751;50.708;7.134;2023-01-30T05:38:40;3.53;;;3.20;;
71091;SDS011;58751;50.708;7.134;2023-01-30T05:41:06;5.63;;;4.35;;
71091;SDS011;58751;50.708;7.134;2023-01-30T05:43:32;5.68;;;4.15;;
71091;SDS011;58751;50.708;7.134;2023-01-30T05:45:59;4.17;;;3.70;;
71091;SDS011;58751;50.708;7.134;2023-01-30T05:48:25;4.35;;;3.60;;
71091;SDS011;58751;50.708;7.134;2023-01-30T05:50:50;7.57;;;4.97;;
71091;SDS011;58751;50.708;7.134;2023-01-30T05:53:16;5.77;;;4.43;;
71091;SDS011;58751;50.708;7.134;2023-01-30T05:55:43;7.30;;;4.50;;
71091;SDS011;58751;50.708;7.134;2023-01-30T05:58:08;5.38;;;4.47;;
71091;SDS011;58751;50.708;7.134;2023-01-30T06:00:33;7.87;;;4.60;;
71091;SDS011;58751;50.708;7.134;2023-01-30T06:02:58;4.97;;;4.47;;
71091;SDS011;58751;50.708;7.134;2023-01-30T06:05:23;6.97;;;4.20;;
71091;SDS011;58751;50.708;7.134;2023-01-30T06:07:49;9.80;;;4.60;;
71091;SDS011;58751;50.708;7.134;2023-01-30T06:10:14;6.50;;;4.73;;
71091;SDS011;58751;50.708;7.134;2023-01-30T06:12:41;5.33;;;4.70;;
71091;SDS011;58751;50.708;7.134;2023-01-30T06:15:06;9.73;;;5.22;;
71091;SDS011;58751;50.708;7.134;2023-01-30T06:17:32;6.60;;;4.10;;
71091;SDS011;58751;50.708;7.134;2023-01-30T06:19:57;7.80;;;4.20;;
71091;SDS011;58751;50.708;7.134;2023-01-30T06:22:22;7.23;;;4.33;;
71091;SDS011;58751;50.708;7.134;2023-01-30T06:24:47;9.13;;;5.30;;
71091;SDS011;58751;50.708;7.134;2023-01-30T06:27:12;5.67;;;4.63;;
71091;SDS011;58751;50.708;7.134;2023-01-30T06:29:39;3.87;;;3.47;;
71091;SDS011;58751;50.708;7.134;2023-01-30T06:32:04;4.35;;;3.63;;
71091;SDS011;58751;50.708;7.134;2023-01-30T06:34:29;4.30;;;3.67;;
71091;SDS011;58751;50.708;7.134;2023-01-30T06:36:55;4.60;;;3.87;;
71091;SDS011;58751;50.708;7.134;2023-01-30T06:39:20;5.17;;;3.20;;
71091;SDS011;58751;50.708;7.134;2023-01-30T06:41:45;3.10;;;2.43;;
71091;SDS011;58751;50.708;7.134;2023-01-30T06:44:10;2.80;;;2.50;;
71091;SDS011;58751;50.708;7.134;2023-01-30T06:46:37;3.13;;;2.83;;
71091;SDS011;58751;50.708;7.134;2023-01-30T06:49:02;6.03;;;2.80;;
71091;SDS011;58751;50.708;7.134;2023-01-30T06:51:27;4.53;;;2.83;;
71091;SDS011;58751;50.708;7.134;2023-01-30T06:53:52;2.17;;;2.00;;
71091;SDS011;58751;50.708;7.134;2023-01-30T06:56:17;7.90;;;2.60;;
71091;SDS011;58751;50.708;7.134;2023-01-30T06:58:43;2.37;;;2.17;;
71091;SDS011;58751;50.708;7.134;2023-01-30T07:01:08;2.60;;;2.40;;
71091;SDS011;58751;50.708;7.134;2023-01-30T07:03:34;4.07;;;2.23;;
71091;SDS011;58751;50.708;7.134;2023-01-30T07:06:00;2.47;;;2.28;;
71091;SDS011;58751;50.708;7.134;2023-01-30T07:08:25;3.93;;;2.13;;
71091;SDS011;58751;50.708;7.134;2023-01-30T07:10:50;1.50;;;1.40;;
71091;SDS011;58751;50.708;7.134;2023-01-30T07:13:15;2.03;;;1.83;;
71091;SDS011;58751;50.708;7.134;2023-01-30T07:15:41;2.37;;;2.17;;
71091;SDS011;58751;50.708;7.134;2023-01-30T07:18:06;1.87;;;1.67;;
71091;SDS011;58751;50.708;7.134;2023-01-30T07:20:33;2.27;;;1.67;;
71091;SDS011;58751;50.708;7.134;2023-01-30T07:22:58;1.40;;;1.30;;
71091;SDS011;58751;50.708;7.134;2023-01-30T07:25:24;2.40;;;2.30;;
71091;SDS011;58751;50.708;7.134;2023-01-30T07:27:49;1.60;;;1.50;;
71091;SDS011;58751;50.708;7.134;2023-01-30T07:30:15;3.23;;;1.93;;
71091;SDS011;58751;50.708;7.134;2023-01-30T07:32:40;1.63;;;1.37;;
71091;SDS011;58751;50.708;7.134;2023-01-30T07:35:06;2.10;;;1.50;;
71091;SDS011;58751;50.708;7.134;2023-01-30T07:37:32;3.00;;;1.23;;
71091;SDS011;58751;50.708;7.134;2023-01-30T07:39:57;1.23;;;1.15;;
71091;SDS011;58751;50.708;7.134;2023-01-30T07:42:23;1.50;;;1.30;;
71091;SDS011;58751;50.708;7.134;2023-01-30T07:44:48;1.50;;;1.10;;
71091;SDS011;58751;50.708;7.134;2023-01-30T07:47:13;1.03;;;0.93;;
71091;SDS011;58751;50.708;7.134;2023-01-30T07:49:38;1.23;;;1.13;;
71091;SDS011;58751;50.708;7.134;2023-01-30T07:52:03;1.37;;;1.07;;
71091;SDS011;58751;50.708;7.134;2023-01-30T07:54:30;0.90;;;0.90;;
71091;SDS011;58751;50.708;7.134;2023-01-30T07:56:55;2.30;;;1.10;;
71091;SDS011;58751;50.708;7.134;2023-01-30T07:59:20;1.20;;;1.10;;
71091;SDS011;58751;50.708;7.134;2023-01-30T08:01:46;1.13;;;1.03;;
71091;SDS011;58751;50.708;7.134;2023-01-30T08:04:11;0.83;;;0.70;;
71091;SDS011;58751;50.708;7.134;2023-01-30T08:06:36;1.03;;;0.90;;
71091;SDS011;58751;50.708;7.134;2023-01-30T08:09:01;0.80;;;0.80;;
71091;SDS011;58751;50.708;7.134;2023-01-30T08:11:28;0.70;;;0.70;;
71091;SDS011;58751;50.708;7.134;2023-01-30T08:13:53;0.77;;;0.60;;
71091;SDS011;58751;50.708;7.134;2023-01-30T08:16:18;1.53;;;1.03;;
71091;SDS011;58751;50.708;7.134;2023-01-30T08:18:44;0.80;;;0.73;;
71091;SDS011;58751;50.708;7.134;2023-01-30T08:21:09;1.03;;;0.80;;
71091;SDS011;58751;50.708;7.134;2023-01-30T08:23:34;4.60;;;1.20;;
71091;SDS011;58751;50.708;7.134;2023-01-30T08:26:00;2.10;;;1.00;;
71091;SDS011;58751;50.708;7.134;2023-01-30T08:28:27;0.77;;;0.70;;
71091;SDS011;58751;50.708;7.134;2023-01-30T08:30:52;3.08;;;1.45;;
71091;SDS011;58751;50.708;7.134;2023-01-30T08:33:18;3.70;;;1.03;;
71091;SDS011;58751;50.708;7.134;2023-01-30T08:35:43;1.13;;;1.00;;
71091;SDS011;58751;50.708;7.134;2023-01-30T08:38:08;2.37;;;1.50;;
71091;SDS011;58751;50.708;7.134;2023-01-30T08:40:33;1.23;;;1.13;;
71091;SDS011;58751;50.708;7.134;2023-01-30T08:42:59;1.40;;;1.30;;
71091;SDS011;58751;50.708;7.134;2023-01-30T08:45:25;1.77;;;1.67;;
71091;SDS011;58751;50.708;7.134;2023-01-30T08:47:50;1.80;;;1.65;;
71091;SDS011;58751;50.708;7.134;2023-01-30T08:50:16;9.73;;;2.80;;
71091;SDS011;58751;50.708;7.134;2023-01-30T08:52:41;3.27;;;1.93;;
71091;SDS011;58751;50.708;7.134;2023-01-30T08:55:06;2.40;;;2.20;;
71091;SDS011;58751;50.708;7.134;2023-01-30T08:57:32;3.10;;;2.77;;
71091;SDS011;58751;50.708;7.134;2023-01-30T08:59:57;5.67;;;2.90;;
71091;SDS011;58751;50.708;7.134;2023-01-30T09:02:24;3.10;;;2.80;;
71091;SDS011;58751;50.708;7.134;2023-01-30T09:04:49;2.97;;;2.65;;
71091;SDS011;58751;50.708;7.134;2023-01-30T09:07:14;5.70;;;3.97;;
71091;SDS011;58751;50.708;7.134;2023-01-30T09:09:39;7.00;;;4.00;;
71091;SDS011;58751;50.708;7.134;2023-01-30T09:12:05;5.10;;;3.73;;
71091;SDS011;58751;50.708;7.134;2023-01-30T09:14:30;7.37;;;4.67;;
71091;SDS011;58751;50.708;7.134;2023-01-30T09:16:55;11.80;;;5.47;;
71091;SDS011;58751;50.708;7.134;2023-01-30T09:19:22;11.27;;;4.37;;
71091;SDS011;58751;50.708;7.134;2023-01-30T09:21:47;5.25;;;3.75;;
71091;SDS011;58751;50.708;7.134;2023-01-30T09:24:12;10.40;;;6.23;;
71091;SDS011;58751;50.708;7.134;2023-01-30T09:26:38;9.03;;;4.90;;
71091;SDS011;58751;50.708;7.134;2023-01-30T09:29:03;6.33;;;4.20;;
71091;SDS011;58751;50.708;7.134;2023-01-30T09:31:28;4.90;;;4.20;;
71091;SDS011;58751;50.708;7.134;2023-01-30T09:33:53;6.13;;;4.03;;
71091;SDS011;58751;50.708;7.134;2023-01-30T09:36:20;6.43;;;3.90;;
71091;SDS011;58751;50.708;7.134;2023-01-30T09:38:45;5.80;;;3.72;;
71091;SDS011;58751;50.708;7.134;2023-01-30T09:41:29;7.00;;;3.17;;
71091;SDS011;58751;50.708;7.134;2023-01-30T09:44:02;8.52;;;4.13;;
71091;SDS011;58751;50.708;7.134;2023-01-30T09:46:29;7.57;;;4.28;;
71091;SDS011;58751;50.708;7.134;2023-01-30T09:49:00;8.88;;;3.67;;
71091;SDS011;58751;50.708;7.134;2023-01-30T09:51:43;7.88;;;2.92;;
71091;SDS011;58751;50.708;7.134;2023-01-30T09:54:14;5.85;;;3.33;;
71091;SDS011;58751;50.708;7.134;2023-01-30T09:56:40;8.50;;;3.85;;
71091;SDS011;58751;50.708;7.134;2023-01-30T09:59:05;7.30;;;3.53;;
71091;SDS011;58751;50.708;7.134;2023-01-30T10:01:33;5.60;;;3.80;;
71091;SDS011;58751;50.708;7.134;2023-01-30T10:04:04;11.82;;;3.83;;
71091;SDS011;58751;50.708;7.134;2023-01-30T10:06:30;4.55;;;2.80;;
71091;SDS011;58751;50.708;7.134;2023-01-30T10:09:00;5.63;;;3.58;;
71091;SDS011;58751;50.708;7.134;2023-01-30T10:11:34;5.35;;;2.75;;
71091;SDS011;58751;50.708;7.134;2023-01-30T10:14:10;9.18;;;3.60;;
71091;SDS011;58751;50.708;7.134;2023-01-30T10:16:39;4.75;;;3.90;;
71091;SDS011;58751;50.708;7.134;2023-01-30T10:19:10;13.48;;;3.53;;
71091;SDS011;58751;50.708;7.134;2023-01-30T10:21:41;8.05;;;3.50;;
71091;SDS011;58751;50.708;7.134;2023-01-30T10:26:55;9.27;;;3.97;;
71091;SDS011;58751;50.708;7.134;2023-01-30T10:29:20;6.43;;;3.58;;
71091;SDS011;58751;50.708;7.134;2023-01-30T10:31:47;11.05;;;3.60;;
71091;SDS011;58751;50.708;7.134;2023-01-30T10:34:14;5.18;;;3.47;;
71091;SDS011;58751;50.708;7.134;2023-01-30T10:36:42;8.32;;;3.85;;
71091;SDS011;58751;50.708;7.134;2023-01-30T10:39:14;5.90;;;3.25;;
71091;SDS011;58751;50.708;7.134;2023-01-30T10:41:44;6.93;;;3.10;;
71091;SDS011;58751;50.708;7.134;2023-01-30T10:44:15;6.03;;;3.38;;
71091;SDS011;58751;50.708;7.134;2023-01-30T10:46:48;7.50;;;2.92;;
71091;SDS011;58751;50.708;7.134;2023-01-30T10:49:17;11.27;;;3.10;;
71091;SDS011;58751;50.708;7.134;2023-01-30T10:51:45;4.40;;;2.17;;
71091;SDS011;58751;50.708;7.134;2023-01-30T10:54:16;3.85;;;2.38;;
71091;SDS011;58751;50.708;7.134;2023-01-30T10:56:44;12.10;;;2.40;;
71091;SDS011;58751;50.708;7.134;2023-01-30T10:59:19;6.80;;;2.88;;
71091;SDS011;58751;50.708;7.134;2023-01-30T11:01:46;3.10;;;1.40;;
71091;SDS011;58751;50.708;7.134;2023-01-30T11:04:17;6.38;;;2.10;;
71091;SDS011;58751;50.708;7.134;2023-01-30T11:06:43;7.20;;;2.20;;
71091;SDS011;58751;50.708;7.134;2023-01-30T11:09:08;33.07;;;3.60;;
71091;SDS011;58751;50.708;7.134;2023-01-30T11:11:34;5.80;;;2.00;;
71091;SDS011;58751;50.708;7.134;2023-01-30T11:14:05;8.45;;;3.03;;
71091;SDS011;58751;50.708;7.134;2023-01-30T11:16:33;8.83;;;2.37;;
71091;SDS011;58751;50.708;7.134;2023-01-30T11:18:58;4.47;;;2.33;;
71091;SDS011;58751;50.708;7.134;2023-01-30T11:21:29;8.05;;;2.47;;
71091;SDS011;58751;50.708;7.134;2023-01-30T11:23:55;5.32;;;2.00;;
71091;SDS011;58751;50.708;7.134;2023-01-30T11:26:22;6.83;;;2.63;;
71091;SDS011;58751;50.708;7.134;2023-01-30T11:28:47;3.70;;;1.98;;
71091;SDS011;58751;50.708;7.134;2023-01-30T11:31:15;15.00;;;2.57;;
71091;SDS011;58751;50.708;7.134;2023-01-30T11:33:42;5.55;;;2.28;;
71091;SDS011;58751;50.708;7.134;2023-01-30T11:36:21;4.93;;;2.15;;
71091;SDS011;58751;50.708;7.134;2023-01-30T11:38:52;3.83;;;2.50;;
71091;SDS011;58751;50.708;7.134;2023-01-30T11:41:20;5.40;;;2.10;;
71091;SDS011;58751;50.708;7.134;2023-01-30T11:43:45;3.92;;;2.55;;
71091;SDS011;58751;50.708;7.134;2023-01-30T11:46:11;5.30;;;2.07;;
71091;SDS011;58751;50.708;7.134;2023-01-30T11:48:39;5.95;;;2.47;;
71091;SDS011;58751;50.708;7.134;2023-01-30T11:51:08;4.18;;;2.40;;
71091;SDS011;58751;50.708;7.134;2023-01-30T11:53:35;5.75;;;2.10;;
71091;SDS011;58751;50.708;7.134;2023-01-30T11:56:03;6.25;;;2.45;;
71091;SDS011;58751;50.708;7.134;2023-01-30T11:58:29;4.78;;;2.30;;
71091;SDS011;58751;50.708;7.134;2023-01-30T12:00:55;10.27;;;3.03;;
71091;SDS011;58751;50.708;7.134;2023-01-30T12:03:22;14.13;;;3.55;;
71091;SDS011;58751;50.708;7.134;2023-01-30T12:05:47;5.97;;;3.47;;
71091;SDS011;58751;50.708;7.134;2023-01-30T12:08:22;7.40;;;2.83;;
71091;SDS011;58751;50.708;7.134;2023-01-30T12:10:48;6.18;;;2.47;;
71091;SDS011;58751;50.708;7.134;2023-01-30T12:13:15;7.85;;;2.28;;
71091;SDS011;58751;50.708;7.134;2023-01-30T12:15:42;5.45;;;2.50;;
71091;SDS011;58751;50.708;7.134;2023-01-30T12:18:09;5.67;;;2.00;;
71091;SDS011;58751;50.708;7.134;2023-01-30T12:20:40;8.63;;;2.78;;
71091;SDS011;58751;50.708;7.134;2023-01-30T12:23:10;6.47;;;1.77;;
71091;SDS011;58751;50.708;7.134;2023-01-30T12:25:40;8.13;;;2.30;;
71091;SDS011;58751;50.708;7.134;2023-01-30T12:28:10;6.13;;;2.25;;
71091;SDS011;58751;50.708;7.134;2023-01-30T12:30:37;6.32;;;2.55;;
71091;SDS011;58751;50.708;7.134;2023-01-30T12:33:04;6.70;;;2.10;;
71091;SDS011;58751;50.708;7.134;2023-01-30T12:35:36;5.10;;;2.45;;
71091;SDS011;58751;50.708;7.134;2023-01-30T12:38:04;6.15;;;2.15;;
71091;SDS011;58751;50.708;7.134;2023-01-30T12:40:35;10.80;;;2.67;;
71091;SDS011;58751;50.708;7.134;2023-01-30T12:43:09;7.35;;;2.25;;
71091;SDS011;58751;50.708;7.134;2023-01-30T12:45:37;8.85;;;2.60;;
71091;SDS011;58751;50.708;7.134;2023-01-30T12:48:13;8.90;;;2.58;;
71091;SDS011;58751;50.708;7.134;2023-01-30T12:50:45;7.85;;;3.40;;
71091;SDS011;58751;50.708;7.134;2023-01-30T12:53:17;7.38;;;2.10;;
71091;SDS011;58751;50.708;7.134;2023-01-30T12:55:47;7.57;;;2.05;;
71091;SDS011;58751;50.708;7.134;2023-01-30T12:58:16;7.85;;;2.17;;
71091;SDS011;58751;50.708;7.134;2023-01-30T13:00:46;8.18;;;2.78;;
71091;SDS011;58751;50.708;7.134;2023-01-30T13:03:21;10.43;;;3.83;;
71091;SDS011;58751;50.708;7.134;2023-01-30T13:05:49;7.75;;;2.33;;
71091;SDS011;58751;50.708;7.134;2023-01-30T13:08:20;6.78;;;2.25;;
71091;SDS011;58751;50.708;7.134;2023-01-30T13:10:50;3.63;;;1.95;;
71091;SDS011;58751;50.708;7.134;2023-01-30T13:13:22;10.23;;;2.70;;
71091;SDS011;58751;50.708;7.134;2023-01-30T13:15:52;6.60;;;2.35;;
71091;SDS011;58751;50.708;7.134;2023-01-30T13:18:22;8.57;;;2.88;;
71091;SDS011;58751;50.708;7.134;2023-01-30T13:20:50;8.20;;;2.45;;
71091;SDS011;58751;50.708;7.134;2023-01-30T13:23:17;3.55;;;2.10;;
71091;SDS011;58751;50.708;7.134;2023-01-30T13:25:46;6.13;;;2.20;;
71091;SDS011;58751;50.708;7.134;2023-01-30T13:28:16;6.60;;;2.70;;
71091;SDS011;58751;50.708;7.134;2023-01-30T13:30:43;3.80;;;2.10;;
71091;SDS011;58751;50.708;7.134;2023-01-30T13:33:10;6.13;;;2.40;;
71091;SDS011;58751;50.708;7.134;2023-01-30T13:35:40;12.40;;;2.25;;
71091;SDS011;58751;50.708;7.134;2023-01-30T13:38:07;5.32;;;2.05;;
71091;SDS011;58751;50.708;7.134;2023-01-30T13:40:37;8.52;;;2.45;;
71091;SDS011;58751;50.708;7.134;2023-01-30T13:43:03;2.95;;;1.20;;
71091;SDS011;58751;50.708;7.134;2023-01-30T13:45:30;9.02;;;3.03;;
71091;SDS011;58751;50.708;7.134;2023-01-30T13:48:02;9.48;;;3.08;;
71091;SDS011;58751;50.708;7.134;2023-01-30T13:50:34;10.60;;;3.03;;
71091;SDS011;58751;50.708;7.134;2023-01-30T13:53:02;11.70;;;2.90;;
71091;SDS011;58751;50.708;7.134;2023-01-30T13:55:31;8.18;;;2.40;;
71091;SDS011;58751;50.708;7.134;2023-01-30T13:58:00;11.68;;;2.40;;
71091;SDS011;58751;50.708;7.134;2023-01-30T14:00:28;11.00;;;2.65;;
71091;SDS011;58751;50.708;7.134;2023-01-30T14:03:19;7.13;;;2.30;;
71091;SDS011;58751;50.708;7.134;2023-01-30T14:05:58;7.53;;;2.15;;
71091;SDS011;58751;50.708;7.134;2023-01-30T14:08:25;9.52;;;2.60;;
71091;SDS011;58751;50.708;7.134;2023-01-30T14:10:51;13.73;;;2.92;;
71091;SDS011;58751;50.708;7.134;2023-01-30T14:13:16;6.60;;;2.20;;
71091;SDS011;58751;50.708;7.134;2023-01-30T14:15:50;10.57;;;2.70;;
71091;SDS011;58751;50.708;7.134;2023-01-30T14:18:20;8.10;;;2.88;;
71091;SDS011;58751;50.708;7.134;2023-01-30T14:20:47;6.43;;;2.42;;
71091;SDS011;58751;50.708;7.134;2023-01-30T14:23:18;4.80;;;2.00;;
71091;SDS011;58751;50.708;7.134;2023-01-30T14:25:45;9.63;;;2.15;;
71091;SDS011;58751;50.708;7.134;2023-01-30T14:31:00;6.18;;;2.00;;
71091;SDS011;58751;50.708;7.134;2023-01-30T14:33:33;5.85;;;1.90;;
71091;SDS011;58751;50.708;7.134;2023-01-30T14:38:42;11.00;;;3.30;;
71091;SDS011;58751;50.708;7.134;2023-01-30T14:41:24;4.57;;;1.67;;
71091;SDS011;58751;50.708;7.134;2023-01-30T14:43:49;12.38;;;3.35;;
71091;SDS011;58751;50.708;7.134;2023-01-30T14:49:01;9.70;;;2.35;;
71091;SDS011;58751;50.708;7.134;2023-01-30T14:51:27;9.93;;;1.88;;
71091;SDS011;58751;50.708;7.134;2023-01-30T14:53:55;7.35;;;2.40;;
71091;SDS011;58751;50.708;7.134;2023-01-30T14:56:33;5.10;;;2.28;;
71091;SDS011;58751;50.708;7.134;2023-01-30T14:59:00;7.18;;;2.28;;
71091;SDS011;58751;50.708;7.134;2023-01-30T15:01:26;7.43;;;2.85;;
71091;SDS011;58751;50.708;7.134;2023-01-30T15:03:51;10.83;;;2.73;;